createdAt,value
2022-08-21T00:00:26.571Z,23.10
2022-08-21T00:03:23.532Z,22.94
2022-08-21T00:06:14.129Z,22.94
2022-08-21T00:09:05.621Z,23.05
2022-08-21T00:11:53.545Z,22.99
2022-08-21T00:14:40.561Z,23.08
2022-08-21T00:17:27.548Z,22.98
2022-08-21T00:20:08.224Z,23.00
2022-08-21T00:22:54.601Z,22.88
2022-08-21T00:25:37.766Z,22.87
2022-08-21T00:28:24.531Z,22.85
2022-08-21T00:31:11.572Z,22.75
2022-08-21T00:34:01.053Z,22.81
2022-08-21T00:36:49.527Z,22.87
2022-08-21T00:39:29.963Z,22.83
2022-08-21T00:42:16.496Z,22.77
2022-08-21T00:44:57.032Z,22.79
2022-08-21T00:47:43.538Z,22.83
2022-08-21T00:50:36.664Z,22.84
2022-08-21T00:53:19.520Z,22.85
2022-08-21T00:56:03.435Z,22.82
2022-08-21T00:58:54.860Z,22.72
2022-08-21T01:01:35.137Z,22.63
2022-08-21T01:04:21.528Z,22.65
2022-08-21T01:07:02.226Z,22.72
2022-08-21T01:09:50.474Z,22.66
2022-08-21T01:12:31.205Z,22.65
2022-08-21T01:15:19.473Z,22.77
2022-08-21T01:18:06.479Z,22.81
2022-08-21T01:20:59.495Z,22.65
2022-08-21T01:23:49.478Z,22.59
2022-08-21T01:26:35.646Z,22.45
2022-08-21T01:29:34.482Z,22.43
2022-08-21T01:32:25.485Z,22.41
2022-08-21T01:35:07.529Z,22.38
2022-08-21T01:37:54.471Z,22.37
2022-08-21T01:40:34.902Z,22.32
2022-08-21T01:43:30.693Z,22.30
2022-08-21T01:46:19.970Z,22.33
2022-08-21T01:49:06.478Z,22.27
2022-08-21T01:51:46.855Z,22.16
2022-08-21T01:54:33.449Z,22.17
2022-08-21T01:57:21.444Z,22.15
2022-08-21T02:00:10.452Z,22.14
2022-08-21T02:02:57.627Z,22.15
2022-08-21T02:05:44.448Z,22.08
2022-08-21T02:08:25.081Z,22.12
2022-08-21T02:11:11.397Z,22.14
2022-08-21T02:13:51.839Z,22.13
2022-08-21T02:16:38.436Z,22.06
2022-08-21T02:19:39.500Z,21.98
2022-08-21T02:22:20.856Z,21.95
2022-08-21T02:25:07.429Z,21.96
2022-08-21T02:28:02.439Z,21.93
2022-08-21T02:30:47.007Z,21.92
2022-08-21T02:33:33.369Z,21.92
2022-08-21T02:36:14.384Z,21.89
2022-08-21T02:39:01.394Z,21.89
2022-08-21T02:41:41.883Z,22.03
2022-08-21T02:44:31.287Z,22.06
2022-08-21T02:47:15.696Z,22.03
2022-08-21T02:50:02.376Z,22.05
2022-08-21T02:52:42.753Z,22.04
2022-08-21T02:55:30.387Z,22.09
2022-08-21T02:58:11.981Z,22.13
2022-08-21T03:00:59.422Z,22.13
2022-08-21T03:03:42.716Z,22.16
2022-08-21T03:26:23.420Z,21.45
2022-08-21T03:29:10.471Z,21.56
2022-08-21T03:31:51.600Z,21.67
2022-08-21T03:34:38.427Z,21.74
2022-08-21T03:37:19.568Z,21.81
2022-08-21T03:40:06.480Z,21.87
2022-08-21T03:42:54.497Z,21.87
2022-08-21T03:45:41.440Z,21.93
2022-08-21T03:48:28.420Z,21.97
2022-08-21T03:51:16.413Z,22.03
2022-08-21T03:53:56.565Z,22.00
2022-08-21T03:56:43.433Z,22.03
2022-08-21T03:59:23.879Z,22.08
2022-08-21T04:02:12.432Z,22.14
2022-08-21T04:04:52.520Z,22.32
2022-08-21T04:07:39.428Z,22.68
2022-08-21T04:10:20.024Z,22.94
2022-08-21T04:13:06.385Z,23.37
2022-08-21T04:15:46.573Z,23.68
2022-08-21T04:18:33.375Z,23.75
2022-08-21T04:21:16.731Z,23.92
2022-08-21T04:24:03.364Z,23.97
2022-08-21T04:26:45.463Z,24.36
2022-08-21T04:29:32.396Z,24.93
2022-08-21T04:32:12.453Z,25.33
2022-08-21T04:35:08.369Z,25.86
2022-08-21T04:37:48.452Z,26.18
2022-08-21T04:40:36.374Z,26.48
2022-08-21T04:43:17.509Z,26.64
2022-08-21T04:46:04.367Z,26.70
2022-08-21T04:48:51.361Z,26.88
2022-08-21T04:51:35.693Z,26.88
2022-08-21T04:54:31.376Z,27.27
2022-08-21T04:57:12.600Z,27.64
2022-08-21T05:00:04.389Z,27.72
2022-08-21T05:02:51.382Z,28.08
2022-08-21T05:05:31.455Z,28.69
2022-08-21T05:08:22.368Z,29.23
2022-08-21T05:11:02.462Z,29.52
2022-08-21T05:13:49.374Z,29.57
2022-08-21T05:16:37.682Z,29.83
2022-08-21T05:19:24.332Z,30.17
2022-08-21T05:22:04.444Z,30.89
2022-08-21T05:24:51.309Z,30.89
2022-08-21T05:27:39.130Z,31.21
2022-08-21T05:30:20.958Z,31.09
2022-08-21T05:33:15.319Z,32.15
2022-08-21T05:35:58.731Z,31.72
2022-08-21T05:38:45.317Z,32.11
2022-08-21T05:41:34.316Z,32.08
2022-08-21T05:44:21.288Z,32.89
2022-08-21T05:47:10.384Z,33.96
2022-08-21T05:49:57.305Z,34.89
2022-08-21T05:52:38.176Z,35.44
2022-08-21T05:55:25.301Z,36.26
2022-08-21T05:58:06.172Z,36.35
2022-08-21T06:00:55.315Z,36.67
2022-08-21T06:03:39.517Z,37.64
2022-08-21T06:06:26.303Z,38.70
2022-08-21T06:09:07.361Z,37.50
2022-08-21T06:11:54.269Z,38.25
2022-08-21T06:14:41.268Z,36.32
2022-08-21T06:17:21.387Z,35.05
2022-08-21T06:20:08.288Z,34.05
2022-08-21T06:22:48.369Z,34.22
2022-08-21T06:25:35.263Z,34.44
2022-08-21T06:28:24.270Z,35.40
2022-08-21T06:31:16.896Z,34.05
2022-08-21T06:34:03.227Z,33.89
2022-08-21T06:36:50.300Z,34.22
2022-08-21T06:39:32.470Z,34.67
2022-08-21T06:42:27.911Z,33.77
2022-08-21T06:45:08.391Z,33.00
2022-08-21T06:47:55.227Z,33.64
2022-08-21T06:50:36.449Z,33.64
2022-08-21T06:53:28.207Z,34.40
2022-08-21T06:56:09.069Z,33.15
2022-08-21T06:58:56.260Z,33.19
2022-08-21T07:01:37.514Z,32.73
2022-08-21T07:04:24.227Z,32.71
2022-08-21T07:07:04.352Z,32.33
2022-08-21T07:09:51.302Z,33.67
2022-08-21T07:12:31.196Z,32.88
2022-08-21T07:15:19.206Z,33.04
2022-08-21T07:18:07.244Z,34.81
2022-08-21T07:20:55.199Z,35.63
2022-08-21T07:23:42.132Z,34.35
2022-08-21T07:26:32.257Z,34.40
2022-08-21T07:29:19.282Z,34.41
2022-08-21T07:32:06.210Z,33.42
2022-08-21T07:34:53.189Z,34.78
2022-08-21T07:37:40.229Z,36.66
2022-08-21T07:40:27.215Z,36.61
2022-08-21T07:43:14.210Z,36.41
2022-08-21T07:45:55.512Z,35.77
2022-08-21T07:48:42.209Z,36.00
2022-08-21T07:51:26.707Z,36.28
2022-08-21T07:54:17.144Z,36.25
2022-08-21T07:56:57.591Z,36.14
2022-08-21T07:59:44.195Z,36.74
2022-08-21T08:02:31.037Z,36.29
2022-08-21T08:05:20.186Z,35.59
2022-08-21T08:08:00.588Z,34.54
2022-08-21T08:10:47.170Z,35.09
2022-08-21T08:13:34.148Z,35.14
2022-08-21T08:16:21.209Z,35.28
2022-08-21T08:19:01.603Z,35.88
2022-08-21T08:21:48.164Z,36.06
2022-08-21T08:24:35.182Z,35.85
2022-08-21T08:27:15.277Z,36.51
2022-08-21T08:30:03.178Z,36.43
2022-08-21T08:32:50.148Z,35.99
2022-08-21T08:35:39.029Z,36.26
2022-08-21T08:38:20.810Z,35.59
2022-08-21T08:41:20.164Z,36.19
2022-08-21T08:44:10.147Z,36.12
2022-08-21T08:46:53.631Z,37.14
2022-08-21T08:49:37.137Z,36.44
2022-08-21T08:52:23.232Z,36.91
2022-08-21T08:55:22.403Z,35.45
2022-08-21T08:58:12.102Z,34.51
2022-08-21T09:00:56.086Z,33.20
2022-08-21T09:03:44.127Z,32.32
2022-08-21T09:06:43.249Z,31.72
2022-08-21T09:09:44.121Z,31.94
2022-08-21T09:12:35.012Z,31.90
2022-08-21T09:15:43.136Z,32.13
2022-08-21T09:18:52.105Z,32.11
2022-08-21T09:21:39.132Z,32.41
2022-08-21T09:24:44.116Z,31.91
2022-08-21T09:27:38.102Z,32.90
2022-08-21T09:30:27.099Z,32.78
2022-08-21T09:33:14.137Z,32.44
2022-08-21T09:36:05.098Z,32.24
2022-08-21T09:38:45.203Z,32.91
2022-08-21T09:41:39.085Z,33.04
2022-08-21T09:44:26.073Z,32.83
2022-08-21T09:47:14.112Z,32.28
2022-08-21T09:50:01.100Z,32.01
2022-08-21T09:52:55.712Z,32.06
2022-08-21T09:56:00.076Z,32.42
2022-08-21T09:58:43.090Z,31.63
2022-08-21T10:01:34.087Z,32.27
2022-08-21T10:04:15.183Z,31.23
2022-08-21T10:07:04.099Z,31.31
2022-08-21T10:09:44.536Z,30.91
2022-08-21T10:12:37.087Z,30.92
2022-08-21T10:15:36.804Z,31.96
2022-08-21T10:18:51.083Z,31.67
2022-08-21T10:21:47.500Z,31.73
2022-08-21T10:24:48.053Z,32.14
2022-08-21T10:27:46.441Z,30.92
2022-08-21T10:31:02.047Z,30.47
2022-08-21T10:33:54.565Z,30.54
2022-08-21T10:36:49.000Z,30.63
2022-08-21T10:39:49.086Z,30.92
2022-08-21T10:42:40.225Z,31.49
2022-08-21T10:45:33.036Z,30.64
2022-08-21T10:48:22.035Z,30.74
2022-08-21T10:51:15.457Z,30.50
2022-08-21T10:54:30.038Z,31.22
2022-08-21T10:57:32.133Z,30.71
2022-08-21T11:00:26.053Z,31.01
2022-08-21T11:03:31.963Z,30.58
2022-08-21T11:06:34.985Z,31.33
2022-08-21T11:09:26.012Z,31.47
2022-08-21T11:12:12.400Z,30.86
2022-08-21T11:15:28.751Z,30.68
2022-08-21T11:18:45.005Z,30.29
2022-08-21T11:21:34.149Z,29.65
2022-08-21T11:24:42.017Z,28.45
2022-08-21T11:27:31.091Z,28.00
2022-08-21T11:30:13.996Z,27.63
2022-08-21T11:33:29.207Z,27.47
2022-08-21T11:36:27.979Z,27.36
2022-08-21T11:39:33.189Z,27.26
2022-08-21T11:42:29.953Z,27.03
2022-08-21T11:45:15.760Z,27.15
2022-08-21T11:48:08.975Z,27.08
2022-08-21T11:50:50.507Z,26.77
2022-08-21T11:54:03.961Z,26.85
2022-08-21T11:57:01.994Z,27.04
2022-08-21T11:59:48.078Z,27.39
2022-08-21T12:02:43.983Z,27.41
2022-08-21T12:05:50.986Z,27.35
2022-08-21T12:09:01.961Z,27.31
2022-08-21T12:12:14.029Z,26.98
2022-08-21T12:15:23.934Z,27.20
2022-08-21T12:18:06.277Z,27.18
2022-08-21T12:21:30.924Z,27.07
2022-08-21T12:24:23.128Z,27.08
2022-08-21T12:27:46.940Z,26.82
2022-08-21T12:30:41.111Z,26.86
2022-08-21T12:33:33.912Z,26.93
2022-08-21T12:36:27.116Z,26.87
2022-08-21T12:39:21.973Z,26.79
2022-08-21T12:42:25.069Z,26.93
2022-08-21T12:45:24.906Z,27.06
2022-08-21T12:48:27.915Z,26.93
2022-08-21T12:51:13.409Z,26.83
2022-08-21T12:54:01.891Z,27.11
2022-08-21T12:56:42.305Z,27.00
2022-08-21T12:59:28.880Z,26.91
2022-08-21T13:02:29.893Z,26.94
2022-08-21T13:05:19.880Z,26.92
2022-08-21T13:08:04.456Z,26.70
2022-08-21T13:10:51.905Z,26.83
2022-08-21T13:13:44.753Z,27.11
2022-08-21T13:16:42.986Z,26.98
2022-08-21T13:19:31.872Z,26.91
2022-08-21T13:22:33.797Z,26.63
2022-08-21T13:25:31.870Z,26.51
2022-08-21T13:28:15.961Z,26.61
2022-08-21T13:31:08.877Z,26.68
2022-08-21T13:33:56.872Z,26.57
2022-08-21T13:36:44.020Z,26.37
2022-08-21T13:39:31.848Z,26.68
2022-08-21T13:42:19.007Z,26.47
2022-08-21T13:45:05.851Z,26.44
2022-08-21T13:47:45.937Z,26.75
2022-08-21T13:50:33.835Z,26.83
2022-08-21T13:53:33.861Z,26.98
2022-08-21T13:56:26.657Z,26.47
2022-08-21T13:59:15.831Z,26.38
2022-08-21T14:02:01.268Z,26.52
2022-08-21T14:04:53.299Z,26.44
2022-08-21T14:07:48.098Z,26.48
2022-08-21T14:10:30.789Z,26.43
2022-08-21T14:13:47.848Z,26.63
2022-08-21T14:16:42.484Z,26.54
2022-08-21T14:19:37.834Z,26.60
2022-08-21T14:22:36.783Z,26.54
2022-08-21T14:25:40.839Z,26.68
2022-08-21T14:28:37.988Z,26.59
2022-08-21T14:31:28.781Z,26.68
2022-08-21T14:34:19.215Z,26.71
2022-08-21T14:37:06.826Z,26.67
2022-08-21T14:39:47.379Z,26.59
2022-08-21T14:42:33.807Z,26.50
2022-08-21T14:45:27.551Z,26.69
2022-08-21T14:48:07.783Z,26.56
2022-08-21T14:50:48.478Z,26.22
2022-08-21T14:53:34.822Z,26.34
2022-08-21T14:56:16.386Z,26.36
2022-08-21T14:59:04.830Z,26.61
2022-08-21T15:01:51.849Z,26.55
2022-08-21T15:04:31.885Z,26.28
2022-08-21T15:07:18.777Z,26.27
2022-08-21T15:09:58.989Z,25.99
2022-08-21T15:28:13.453Z,25.83
2022-08-21T15:30:53.927Z,25.95
2022-08-21T15:33:40.427Z,25.97
2022-08-21T15:36:27.479Z,26.00
2022-08-21T15:39:14.498Z,25.92
2022-08-21T15:41:54.824Z,25.79
2022-08-21T15:44:42.409Z,25.85
2022-08-21T15:47:35.400Z,26.04
2022-08-21T15:50:17.572Z,26.03
2022-08-21T15:53:04.473Z,25.97
2022-08-21T15:55:44.594Z,25.94
2022-08-21T15:58:31.474Z,25.82
2022-08-21T16:01:18.484Z,25.72
2022-08-21T16:03:59.109Z,25.68
2022-08-21T16:06:54.242Z,25.70
2022-08-21T16:09:35.881Z,25.73
2022-08-21T16:12:25.395Z,25.58
2022-08-21T16:15:20.611Z,25.47
2022-08-21T16:18:01.385Z,25.55
2022-08-21T16:20:42.736Z,25.58
2022-08-21T16:23:29.363Z,25.49
2022-08-21T16:26:25.393Z,25.55
2022-08-21T16:29:08.668Z,25.47
2022-08-21T16:31:55.361Z,25.53
2022-08-21T16:34:43.442Z,25.55
2022-08-21T16:37:24.709Z,25.41
2022-08-21T16:40:12.438Z,25.40
2022-08-21T16:42:52.937Z,25.42
2022-08-21T16:45:39.342Z,25.32
2022-08-21T16:48:26.358Z,25.28
2022-08-21T16:51:13.383Z,25.24
2022-08-21T16:54:00.656Z,25.24
2022-08-21T16:56:48.361Z,25.23
2022-08-21T16:59:35.348Z,25.32
2022-08-21T17:02:40.362Z,25.36
2022-08-21T17:05:21.456Z,25.36
2022-08-21T17:08:08.332Z,25.31
2022-08-21T17:10:54.490Z,25.39
2022-08-21T17:13:41.354Z,25.40
2022-08-21T17:16:22.459Z,25.35
2022-08-21T17:19:09.406Z,25.28
2022-08-21T17:21:49.450Z,25.39
2022-08-21T17:24:36.319Z,25.25
2022-08-21T17:27:26.837Z,25.25
2022-08-21T17:30:07.322Z,25.16
2022-08-21T17:32:51.233Z,25.13
2022-08-21T17:35:38.351Z,25.16
2022-08-21T17:38:18.779Z,25.20
2022-08-21T17:41:06.328Z,25.25
2022-08-21T17:43:47.484Z,25.24
2022-08-21T17:46:41.283Z,25.17
2022-08-21T17:49:21.693Z,25.14
2022-08-21T17:52:08.290Z,25.23
2022-08-21T17:54:48.744Z,25.23
2022-08-21T17:57:37.260Z,25.28
2022-08-21T18:00:28.302Z,25.22
2022-08-21T18:03:16.457Z,25.18
2022-08-21T18:06:03.281Z,25.20
2022-08-21T18:08:43.472Z,25.26
2022-08-21T18:11:34.281Z,25.35
2022-08-21T18:14:15.507Z,25.42
2022-08-21T18:17:03.552Z,25.34
2022-08-21T18:19:50.273Z,25.34
2022-08-21T18:22:30.738Z,25.20
2022-08-21T18:25:18.342Z,25.21
2022-08-21T18:28:14.324Z,25.24
2022-08-21T18:30:55.592Z,25.31
2022-08-21T18:33:56.948Z,25.22
2022-08-21T18:36:45.604Z,25.13
2022-08-21T18:39:36.413Z,25.20
2022-08-21T18:42:29.117Z,25.04
2022-08-21T18:45:12.553Z,25.04
2022-08-21T18:48:02.243Z,24.97
2022-08-21T18:50:52.217Z,24.89
2022-08-21T18:53:32.712Z,24.79
2022-08-21T18:56:20.209Z,24.75
2022-08-21T18:59:01.610Z,24.72
2022-08-21T19:01:48.388Z,24.73
2022-08-21T19:04:43.735Z,24.72
2022-08-21T19:07:31.241Z,24.71
2022-08-21T19:10:28.323Z,24.56
2022-08-21T19:13:12.200Z,24.62
2022-08-21T19:16:02.204Z,24.65
2022-08-21T19:18:42.681Z,24.67
2022-08-21T19:21:29.236Z,24.69
2022-08-21T19:24:17.566Z,24.59
2022-08-21T19:26:58.392Z,24.51
2022-08-21T19:29:46.181Z,24.44
2022-08-21T19:32:26.336Z,24.43
2022-08-21T19:35:15.190Z,24.45
2022-08-21T19:38:02.192Z,24.46
2022-08-21T19:40:49.168Z,24.43
2022-08-21T19:43:30.285Z,24.45
2022-08-21T19:46:19.166Z,24.39
2022-08-21T19:49:07.200Z,24.43
2022-08-21T19:51:47.645Z,24.41
2022-08-21T19:54:45.241Z,24.41
2022-08-21T19:57:32.186Z,24.39
2022-08-21T20:00:22.166Z,24.27
2022-08-21T20:03:11.182Z,24.20
2022-08-21T20:05:51.277Z,24.13
2022-08-21T20:08:41.153Z,24.02
2022-08-21T20:11:38.277Z,23.96
2022-08-21T20:14:32.220Z,23.93
2022-08-21T20:17:23.160Z,23.98
2022-08-21T20:20:05.340Z,23.95
2022-08-21T20:22:52.261Z,23.98
2022-08-21T20:25:34.722Z,23.97
2022-08-21T20:28:22.109Z,23.88
2022-08-21T20:31:06.670Z,23.88
2022-08-21T20:33:57.100Z,23.88
2022-08-21T20:36:37.612Z,23.80
2022-08-21T20:39:25.168Z,23.76
2022-08-21T20:42:12.140Z,23.71
2022-08-21T20:44:59.287Z,23.69
2022-08-21T20:47:46.150Z,23.68
2022-08-21T20:53:43.163Z,23.75
2022-08-21T20:56:37.108Z,23.68
2022-08-21T20:59:22.247Z,23.72
2022-08-21T21:02:40.150Z,23.79
2022-08-21T21:05:31.420Z,23.74
2022-08-21T21:08:28.127Z,23.77
2022-08-21T21:11:24.209Z,23.73
2022-08-21T21:14:18.126Z,23.71
2022-08-21T21:17:04.357Z,23.76
2022-08-21T21:20:01.451Z,23.75
2022-08-21T21:22:51.510Z,23.61
2022-08-21T21:25:53.950Z,23.69
2022-08-21T21:29:34.989Z,23.59
2022-08-21T21:32:17.895Z,23.65
2022-08-21T21:35:05.088Z,23.59
2022-08-21T21:37:57.230Z,23.49
2022-08-21T21:40:52.170Z,23.39
2022-08-21T21:43:39.245Z,23.32
2022-08-21T21:47:21.107Z,23.40
2022-08-21T21:50:09.319Z,23.38
2022-08-21T21:53:12.267Z,23.43
2022-08-21T21:56:20.111Z,23.44
2022-08-21T21:59:31.318Z,23.44
2022-08-21T22:02:30.072Z,23.42
2022-08-21T22:05:47.023Z,23.50
2022-08-21T22:08:48.824Z,23.44
2022-08-21T22:11:44.338Z,23.33
2022-08-21T22:14:34.050Z,23.26
2022-08-21T22:17:41.192Z,23.23
2022-08-21T22:20:25.185Z,23.28
2022-08-21T22:23:13.030Z,23.24
2022-08-21T22:26:07.400Z,23.09
2022-08-21T22:32:17.057Z,22.98
2022-08-21T22:35:20.306Z,22.90
2022-08-21T22:38:19.060Z,22.87
2022-08-21T22:41:23.163Z,22.85
2022-08-21T22:44:27.296Z,22.71
2022-08-21T22:47:16.057Z,22.67
2022-08-21T22:50:04.310Z,22.67
2022-08-21T22:52:58.202Z,22.64
2022-08-21T22:55:58.988Z,22.55
2022-08-21T22:59:10.284Z,22.55
2022-08-21T23:02:03.784Z,22.47
2022-08-21T23:05:01.226Z,22.47
2022-08-21T23:07:51.400Z,22.44
2022-08-21T23:10:52.179Z,22.42
2022-08-21T23:13:48.014Z,22.40
2022-08-21T23:16:47.983Z,22.40
2022-08-21T23:20:11.990Z,22.38
2022-08-21T23:23:13.966Z,22.29
2022-08-21T23:26:17.641Z,22.29
2022-08-21T23:29:51.754Z,22.26
2022-08-21T23:32:54.500Z,22.20
2022-08-21T23:36:06.556Z,22.23
2022-08-21T23:39:09.958Z,22.24
2022-08-21T23:41:56.957Z,22.21
2022-08-21T23:44:44.223Z,22.21
2022-08-21T23:47:37.952Z,22.23
2022-08-21T23:50:36.972Z,22.20
2022-08-21T23:53:38.962Z,22.16
2022-08-21T23:56:38.122Z,22.22
2022-08-21T23:59:53.133Z,22.22
